KSFB/SFB METAR and TAF weather

Enter ICAO airport designator
Station Type Date Time Source
KSFB METAR 2023/01/30 10:53 UTC NOAA

KSFB 301053Z AUTO 16003KT 10SM CLR 17/17 A3018 RMK AO2 SLP219 T01720172


Station Type Date Time Source
KSFB Decoded METAR 2023/01/30 10:53 UTC NOAA

ORLANDO SANFORD AIRPORT, FL, United States (KSFB) 28-47N 081-15W
Jan 30, 2023 - 05:53 AM EST / 2023.01.30 1053 UTC
Wind: from the SSE (160 degrees) at 3 MPH (3 KT):0
Visibility: 10 mile(s):0
Sky conditions: clear
Temperature: 63.0 F (17.2 C)
Dew Point: 63.0 F (17.2 C)
Relative Humidity: 100%
Pressure (altimeter): 30.18 in. Hg (1022 hPa)
ob: KSFB 301053Z AUTO 16003KT 10SM CLR 17/17 A3018 RMK AO2 SLP219 T01720172
cycle: 11

Station Type Date Time Source
KSFB TAF 2023/01/30 06:45 UTC NOAA

TAF KSFB 300542Z 3006/3106 VRB03KT P6SM SCT250
FM301000 VRB03KT 5SM BR FEW005 BKN015
FM301400 19006KT P6SM SCT020 SCT050 SCT250
FM302200 12007KT P6SM SCT030 BKN050 BKN250
FM310300 18004KT P6SM FEW050 FEW250

Example: see airport list